Time;durP1;ratioP1;P1;durP2;ratioP2;P2;SDS_P1;SDS_P2;PMS_P1;PMS_P2;Temp;Humidity;BMP_temperature;BMP_pressure;BME280_temperature;BME280_humidity;BME280_pressure;Samples;Min_cycle;Max_cycle;Signal;HPM_P1;HPM_P2
2023/12/30 00:01:00;;;;;;;82.45;36.08;;;1.80;99.90;;;;;;5013631;28;20056;-78
2023/12/30 00:03:29;;;;;;;79.78;35.78;;;1.80;99.90;;;;;;5011402;28;20052;-78
2023/12/30 00:05:57;;;;;;;78.15;35.20;;;2.10;99.90;;;;;;5013725;28;20096;-78
2023/12/30 00:08:26;;;;;;;77.28;33.00;;;2.10;99.90;;;;;;5026855;28;22540;-78
2023/12/30 00:10:57;;;;;;;78.95;35.00;;;1.80;99.90;;;;;;5015685;28;22497;-78
2023/12/30 00:13:25;;;;;;;65.20;29.38;;;1.80;99.90;;;;;;5032395;28;20829;-78
2023/12/30 00:15:54;;;;;;;66.53;28.05;;;1.80;99.90;;;;;;5030901;28;20067;-79
2023/12/30 00:18:24;;;;;;;68.32;30.08;;;1.60;99.90;;;;;;5029567;28;20721;-78
2023/12/30 00:20:52;;;;;;;94.18;42.20;;;1.70;99.90;;;;;;5010429;28;22069;-77
2023/12/30 00:23:21;;;;;;;64.18;29.77;;;1.60;99.90;;;;;;5009760;28;20874;-78
2023/12/30 00:25:49;;;;;;;75.25;32.90;;;1.40;99.90;;;;;;5009179;28;20060;-78
2023/12/30 00:28:18;;;;;;;67.20;29.63;;;1.70;99.90;;;;;;5021171;28;20486;-78
2023/12/30 00:30:46;;;;;;;89.30;36.85;;;1.80;99.90;;;;;;5048542;28;20049;-77
2023/12/30 00:33:15;;;;;;;80.53;32.83;;;1.80;99.90;;;;;;5055037;28;20043;-78
2023/12/30 00:35:45;;;;;;;82.70;35.47;;;1.80;99.90;;;;;;5020345;28;20670;-78
2023/12/30 00:38:13;;;;;;;78.53;33.50;;;1.80;99.90;;;;;;5009218;28;20219;-77
2023/12/30 00:40:50;;;;;;;79.57;33.35;;;1.80;99.90;;;;;;5026486;28;20191;-78
2023/12/30 00:43:19;;;;;;;74.35;32.25;;;1.80;99.90;;;;;;5021710;28;20123;-77
2023/12/30 00:45:48;;;;;;;76.95;32.33;;;1.80;99.90;;;;;;5026407;28;20065;-78
2023/12/30 00:48:17;;;;;;;78.63;33.22;;;1.90;99.90;;;;;;5011180;28;22729;-78
2023/12/30 00:50:48;;;;;;;74.55;32.28;;;1.90;99.90;;;;;;5035674;28;20869;-77
2023/12/30 00:53:17;;;;;;;87.40;34.63;;;1.90;99.90;;;;;;5027174;28;22722;-77
2023/12/30 00:55:46;;;;;;;95.25;39.35;;;1.90;99.90;;;;;;5011042;28;20065;-78
2023/12/30 00:58:15;;;;;;;95.93;38.90;;;1.90;99.90;;;;;;5025817;28;20057;-77
2023/12/30 01:00:44;;;;;;;100.47;40.45;;;1.80;99.90;;;;;;5018361;28;20701;-77
2023/12/30 01:03:12;;;;;;;93.15;38.55;;;1.80;99.90;;;;;;5035112;28;20057;-77
2023/12/30 01:05:41;;;;;;;90.70;40.50;;;1.90;99.90;;;;;;5015353;28;20530;-78
2023/12/30 01:08:11;;;;;;;95.88;40.42;;;1.90;99.90;;;;;;5027264;28;21007;-77
2023/12/30 01:10:40;;;;;;;103.30;43.85;;;1.90;99.90;;;;;;5013601;28;20049;-77
2023/12/30 01:13:08;;;;;;;94.93;38.75;;;1.90;99.90;;;;;;5028279;28;22547;-77
2023/12/30 01:15:37;;;;;;;92.65;40.17;;;1.90;99.90;;;;;;5020291;28;20053;-77
2023/12/30 01:18:05;;;;;;;96.13;41.47;;;1.90;99.90;;;;;;5013673;28;24044;-78
2023/12/30 01:20:34;;;;;;;92.20;39.42;;;1.90;99.90;;;;;;5016555;28;21978;-77
2023/12/30 01:23:03;;;;;;;95.45;39.10;;;1.90;99.90;;;;;;5017516;28;22572;-78
2023/12/30 01:25:33;;;;;;;98.85;41.38;;;1.90;99.90;;;;;;5017109;28;20143;-78
2023/12/30 01:28:02;;;;;;;115.85;46.38;;;1.90;99.90;;;;;;5035610;28;20061;-77
2023/12/30 01:30:30;;;;;;;106.90;40.28;;;1.90;99.90;;;;;;5014622;28;20133;-78
2023/12/30 01:32:59;;;;;;;107.80;42.35;;;1.80;99.90;;;;;;5022053;28;20048;-77
2023/12/30 01:35:28;;;;;;;94.03;39.92;;;1.90;99.90;;;;;;5029676;28;20045;-78
2023/12/30 01:37:56;;;;;;;95.40;42.28;;;1.80;99.90;;;;;;5022582;28;20056;-78
2023/12/30 01:40:26;;;;;;;105.65;42.83;;;1.90;99.90;;;;;;5015069;28;20247;-78
2023/12/30 01:42:56;;;;;;;111.18;43.30;;;1.80;99.90;;;;;;5019066;28;20049;-78
2023/12/30 01:45:25;;;;;;;100.85;40.40;;;1.80;99.90;;;;;;5019717;28;20136;-78
2023/12/30 01:47:54;;;;;;;120.78;46.17;;;1.80;99.90;;;;;;5025271;28;20176;-78
2023/12/30 01:50:23;;;;;;;116.65;46.42;;;1.80;99.90;;;;;;5017076;28;20130;-78
2023/12/30 01:52:52;;;;;;;123.78;49.83;;;1.80;99.90;;;;;;5014914;28;20525;-78
2023/12/30 01:55:21;;;;;;;122.30;46.33;;;1.80;99.90;;;;;;5032694;28;20072;-78
2023/12/30 01:57:50;;;;;;;108.32;42.97;;;1.80;99.90;;;;;;5028692;28;20056;-78
2023/12/30 02:00:21;;;;;;;105.80;44.08;;;1.80;99.90;;;;;;5015877;28;20060;-78
2023/12/30 02:02:49;;;;;;;111.40;43.00;;;1.80;99.90;;;;;;5015091;28;20056;-78
2023/12/30 02:05:18;;;;;;;101.32;41.10;;;1.80;99.90;;;;;;5028484;28;20136;-78
2023/12/30 02:07:48;;;;;;;98.38;39.20;;;1.80;99.90;;;;;;5016937;28;20147;-78
2023/12/30 02:10:16;;;;;;;86.88;37.83;;;1.80;99.90;;;;;;5028225;28;20098;-78
2023/12/30 02:12:45;;;;;;;101.65;40.85;;;1.70;99.90;;;;;;5016460;28;20184;-78
2023/12/30 02:15:15;;;;;;;91.82;38.67;;;1.80;99.90;;;;;;5024151;28;20048;-78
2023/12/30 02:17:47;;;;;;;91.13;38.10;;;1.80;99.90;;;;;;5037948;28;20119;-78
2023/12/30 02:20:17;;;;;;;83.95;34.22;;;1.80;99.90;;;;;;5047733;28;20052;-79
2023/12/30 02:22:48;;;;;;;85.55;36.20;;;1.80;99.90;;;;;;5042574;28;20051;-78
2023/12/30 02:25:17;;;;;;;79.20;36.30;;;1.80;99.90;;;;;;5045371;28;20108;-77
2023/12/30 02:27:46;;;;;;;86.70;37.35;;;1.80;99.90;;;;;;5033660;28;20085;-78
2023/12/30 02:30:15;;;;;;;77.20;37.65;;;1.80;99.90;;;;;;5024746;28;20068;-78
2023/12/30 02:32:44;;;;;;;83.68;35.05;;;1.70;99.90;;;;;;5034166;28;20057;-78
2023/12/30 02:35:13;;;;;;;79.13;35.53;;;1.60;99.90;;;;;;5016119;28;20108;-78
2023/12/30 02:37:44;;;;;;;80.40;32.90;;;1.70;99.90;;;;;;5017108;28;20103;-78
2023/12/30 02:40:15;;;;;;;73.80;30.63;;;1.70;99.90;;;;;;5044087;28;20167;-78
2023/12/30 02:42:44;;;;;;;76.75;32.72;;;1.70;99.90;;;;;;5016669;28;20127;-78
2023/12/30 02:45:12;;;;;;;77.35;33.80;;;1.90;99.90;;;;;;5021852;28;20051;-78
2023/12/30 02:47:41;;;;;;;84.45;34.58;;;0.50;99.90;;;;;;5032067;28;20116;-78
2023/12/30 02:50:10;;;;;;;71.22;31.60;;;1.80;99.90;;;;;;5020571;28;20064;-78
2023/12/30 02:52:39;;;;;;;79.63;33.33;;;1.70;99.90;;;;;;5042281;28;20056;-78
2023/12/30 02:55:08;;;;;;;63.67;28.88;;;1.10;99.90;;;;;;5026155;28;20071;-78
2023/12/30 02:57:37;;;;;;;66.25;28.10;;;1.60;99.90;;;;;;5013711;28;20060;-78
2023/12/30 03:00:18;;;;;;;68.05;28.00;;;1.80;99.90;;;;;;5035746;28;20140;-78
2023/12/30 03:02:47;;;;;;;70.45;31.77;;;1.60;99.90;;;;;;5035820;28;20059;-78
2023/12/30 03:05:15;;;;;;;60.92;29.20;;;1.60;99.90;;;;;;5052447;28;20309;-78
2023/12/30 03:07:44;;;;;;;63.63;30.38;;;1.60;99.90;;;;;;5013311;28;20057;-78
2023/12/30 03:10:13;;;;;;;63.78;27.05;;;1.60;99.90;;;;;;5014845;28;20054;-78
2023/12/30 03:12:43;;;;;;;61.42;27.10;;;1.60;99.90;;;;;;5014562;28;20044;-78
2023/12/30 03:15:12;;;;;;;62.92;27.75;;;1.50;99.90;;;;;;5030945;28;20053;-78
2023/12/30 03:17:40;;;;;;;58.85;27.58;;;1.50;99.90;;;;;;5013466;28;20052;-78
2023/12/30 03:20:10;;;;;;;69.80;29.00;;;1.60;99.90;;;;;;5014582;28;20154;-78
2023/12/30 03:22:38;;;;;;;62.42;27.25;;;1.60;99.90;;;;;;5012603;28;20059;-78
2023/12/30 03:25:08;;;;;;;65.38;28.08;;;2.20;99.90;;;;;;5029917;28;20049;-78
2023/12/30 03:27:37;;;;;;;59.00;26.80;;;1.60;99.90;;;;;;5011875;28;20113;-78
2023/12/30 03:30:09;;;;;;;63.67;28.55;;;1.60;99.90;;;;;;5030976;28;20114;-78
2023/12/30 03:32:38;;;;;;;65.05;28.85;;;1.50;99.90;;;;;;5030232;28;20053;-78
2023/12/30 03:35:07;;;;;;;71.80;29.33;;;1.40;99.90;;;;;;5035484;28;20208;-78
2023/12/30 03:37:36;;;;;;;56.75;26.85;;;1.70;99.90;;;;;;5033210;28;20052;-78
2023/12/30 03:40:06;;;;;;;62.40;28.08;;;1.50;99.90;;;;;;5021543;28;20059;-78
2023/12/30 03:42:34;;;;;;;60.22;29.00;;;1.50;99.90;;;;;;5022071;28;20070;-78
2023/12/30 03:45:05;;;;;;;61.88;28.15;;;1.40;99.90;;;;;;5014161;28;20049;-78
2023/12/30 03:47:35;;;;;;;63.38;28.60;;;1.40;99.90;;;;;;5016324;28;20079;-78
2023/12/30 03:50:04;;;;;;;58.58;26.92;;;1.30;99.90;;;;;;5015009;28;22778;-78
2023/12/30 03:52:33;;;;;;;57.88;27.23;;;1.40;99.90;;;;;;5013265;28;20048;-77
2023/12/30 03:55:02;;;;;;;60.95;27.40;;;1.40;99.90;;;;;;5015281;28;20182;-78
2023/12/30 03:57:30;;;;;;;69.75;27.85;;;1.30;99.90;;;;;;5024595;28;22618;-78
2023/12/30 04:00:00;;;;;;;60.28;26.33;;;1.40;99.90;;;;;;5014471;28;20048;-78
2023/12/30 04:02:28;;;;;;;74.85;31.50;;;1.40;99.90;;;;;;5011447;28;20056;-78
2023/12/30 04:05:00;;;;;;;56.72;25.38;;;1.70;99.90;;;;;;5018404;28;20047;-78
2023/12/30 04:07:29;;;;;;;68.43;29.73;;;1.30;99.90;;;;;;5029108;28;20048;-78
2023/12/30 04:09:58;;;;;;;60.25;26.38;;;1.30;99.90;;;;;;5038134;28;20041;-78
2023/12/30 04:12:26;;;;;;;56.75;25.05;;;1.00;99.90;;;;;;5041497;28;22684;-78
2023/12/30 04:14:55;;;;;;;52.50;24.02;;;1.30;99.90;;;;;;5033036;28;20075;-78
2023/12/30 04:17:24;;;;;;;62.88;25.55;;;1.50;99.90;;;;;;5017820;28;20143;-79
2023/12/30 04:19:54;;;;;;;53.60;24.00;;;1.40;99.90;;;;;;5038448;28;20044;-78
2023/12/30 04:22:25;;;;;;;54.90;24.20;;;2.00;99.90;;;;;;5046973;28;20154;-79
2023/12/30 04:24:54;;;;;;;54.08;25.88;;;1.20;99.90;;;;;;5017015;28;20053;-78
2023/12/30 04:27:24;;;;;;;52.28;23.52;;;0.50;99.90;;;;;;5051802;28;22854;-78
2023/12/30 04:29:53;;;;;;;67.93;31.10;;;1.10;99.90;;;;;;5014942;28;20176;-78
2023/12/30 04:32:21;;;;;;;45.17;21.38;;;1.10;99.90;;;;;;5031871;28;20858;-78
2023/12/30 04:34:50;;;;;;;54.88;25.85;;;1.30;99.90;;;;;;5029300;28;20496;-79
2023/12/30 04:37:20;;;;;;;65.28;28.10;;;0.90;99.90;;;;;;5026871;28;20520;-79
2023/12/30 04:39:51;;;;;;;58.38;25.77;;;0.20;99.90;;;;;;5029732;28;20174;-78
2023/12/30 04:42:20;;;;;;;86.60;35.75;;;0.20;99.90;;;;;;5020602;28;20186;-78
2023/12/30 04:44:57;;;;;;;51.88;21.83;;;0.80;99.90;;;;;;5041897;28;20049;-79
2023/12/30 04:47:26;;;;;;;81.28;33.72;;;0.80;99.90;;;;;;5018464;28;20128;-78
2023/12/30 04:49:55;;;;;;;51.25;24.15;;;-0.10;99.90;;;;;;5025569;28;20057;-79
2023/12/30 04:52:24;;;;;;;60.35;25.95;;;0.90;99.90;;;;;;5019241;28;20064;-79
2023/12/30 04:54:55;;;;;;;106.93;40.30;;;1.20;99.90;;;;;;5048587;28;20131;-78
2023/12/30 04:57:24;;;;;;;59.70;26.00;;;0.90;99.90;;;;;;5022471;28;20049;-79
2023/12/30 04:59:53;;;;;;;75.30;31.17;;;0.80;99.90;;;;;;5027198;28;20057;-79
2023/12/30 05:02:22;;;;;;;72.00;32.08;;;1.10;99.90;;;;;;5019050;28;20055;-79
2023/12/30 05:04:51;;;;;;;69.85;29.50;;;1.00;99.90;;;;;;5021919;28;20076;-79
2023/12/30 05:07:20;;;;;;;61.42;27.92;;;0.70;99.90;;;;;;5052057;28;20052;-79
2023/12/30 05:09:50;;;;;;;65.07;30.38;;;1.00;99.90;;;;;;5022458;28;20076;-79
2023/12/30 05:12:20;;;;;;;62.47;27.88;;;1.20;99.90;;;;;;5047333;28;20048;-79
2023/12/30 05:14:49;;;;;;;64.18;30.10;;;1.10;99.90;;;;;;5048181;28;20068;-79
2023/12/30 05:17:18;;;;;;;72.25;27.90;;;1.20;99.90;;;;;;5019183;28;20715;-79
2023/12/30 05:19:47;;;;;;;64.65;28.98;;;1.10;99.90;;;;;;5019968;28;20059;-79
2023/12/30 05:22:17;;;;;;;61.67;27.33;;;1.20;99.90;;;;;;5040562;28;21425;-79
2023/12/30 05:24:45;;;;;;;62.65;28.13;;;1.20;99.90;;;;;;5019535;28;20048;-79
2023/12/30 05:27:14;;;;;;;63.88;27.73;;;1.00;99.90;;;;;;5021010;28;20072;-79
2023/12/30 05:29:44;;;;;;;61.63;29.13;;;1.10;99.90;;;;;;5033328;28;20068;-79
2023/12/30 05:32:14;;;;;;;75.80;34.72;;;0.90;99.90;;;;;;5020494;28;20547;-79
2023/12/30 05:34:43;;;;;;;65.70;27.40;;;0.50;99.90;;;;;;5029539;28;20055;-78
2023/12/30 05:37:12;;;;;;;69.80;31.83;;;1.70;99.90;;;;;;5024495;28;20056;-79
2023/12/30 05:39:41;;;;;;;61.70;28.70;;;1.10;99.90;;;;;;5024131;28;20305;-79
2023/12/30 05:42:13;;;;;;;59.92;27.85;;;1.50;99.90;;;;;;5035728;28;22724;-79
2023/12/30 05:44:42;;;;;;;77.40;31.20;;;0.80;99.90;;;;;;5019842;28;20142;-79
2023/12/30 05:47:14;;;;;;;71.82;32.17;;;1.30;99.90;;;;;;5018658;28;20082;-79
2023/12/30 05:49:43;;;;;;;56.90;26.85;;;1.10;99.90;;;;;;5017653;28;20836;-79
2023/12/30 05:52:12;;;;;;;53.25;24.23;;;1.10;99.90;;;;;;5019384;28;20076;-79
2023/12/30 05:54:41;;;;;;;55.83;25.42;;;-0.10;99.90;;;;;;5032635;28;22678;-79
2023/12/30 05:57:10;;;;;;;54.30;25.23;;;1.70;99.90;;;;;;5023124;28;20077;-79
2023/12/30 05:59:40;;;;;;;57.58;25.88;;;1.10;99.90;;;;;;5022550;28;20152;-78
2023/12/30 06:02:09;;;;;;;55.65;25.02;;;1.00;99.90;;;;;;5038475;28;20175;-80
2023/12/30 06:04:42;;;;;;;61.88;25.58;;;1.80;99.90;;;;;;5020919;28;22821;-79
2023/12/30 06:07:12;;;;;;;56.95;26.65;;;1.00;99.90;;;;;;5040152;28;20049;-79
2023/12/30 06:09:41;;;;;;;59.30;24.80;;;2.50;99.90;;;;;;5025900;28;20061;-79
2023/12/30 06:12:10;;;;;;;52.33;25.02;;;0.90;99.90;;;;;;5038097;28;20227;-79
2023/12/30 06:14:40;;;;;;;54.25;24.15;;;0.70;99.90;;;;;;5039639;28;20102;-79
2023/12/30 06:17:11;;;;;;;53.90;23.27;;;0.00;99.90;;;;;;5019573;28;20047;-79
2023/12/30 06:19:42;;;;;;;51.53;23.13;;;2.20;99.90;;;;;;5019216;28;20147;-79
2023/12/30 06:22:11;;;;;;;50.58;21.52;;;1.00;99.90;;;;;;5030145;28;22736;-78
2023/12/30 06:24:40;;;;;;;68.55;29.80;;;2.10;99.90;;;;;;5039071;28;20055;-79
2023/12/30 06:27:10;;;;;;;51.13;25.95;;;0.30;99.90;;;;;;5036654;28;20052;-78
2023/12/30 06:29:39;;;;;;;53.72;24.17;;;2.50;99.90;;;;;;5022154;28;20063;-79
2023/12/30 06:32:10;;;;;;;63.08;29.60;;;1.00;99.90;;;;;;5018940;28;20063;-79
2023/12/30 06:34:39;;;;;;;52.78;24.63;;;0.50;99.90;;;;;;5028063;28;20059;-79
2023/12/30 06:37:09;;;;;;;46.40;24.02;;;1.00;99.90;;;;;;5037640;28;20044;-79
2023/12/30 06:39:38;;;;;;;49.15;23.05;;;0.80;99.90;;;;;;5033338;28;20041;-79
2023/12/30 06:42:07;;;;;;;54.60;24.15;;;0.90;99.90;;;;;;5018359;28;20122;-79
2023/12/30 06:44:36;;;;;;;63.22;29.70;;;0.90;99.90;;;;;;5021299;28;20062;-79
2023/12/30 06:47:05;;;;;;;54.50;26.98;;;1.00;99.90;;;;;;5019310;28;20053;-79
2023/12/30 06:49:34;;;;;;;60.78;28.95;;;1.00;99.90;;;;;;5017582;28;20060;-79
2023/12/30 06:52:03;;;;;;;57.08;27.38;;;0.70;99.90;;;;;;5038974;28;20044;-79
2023/12/30 06:54:36;;;;;;;56.22;26.75;;;1.00;99.90;;;;;;5024875;28;20048;-78
2023/12/30 06:57:06;;;;;;;57.28;25.95;;;1.00;99.90;;;;;;5042449;28;20127;-79
2023/12/30 06:59:35;;;;;;;58.13;26.63;;;1.00;99.90;;;;;;5028776;28;20056;-79
2023/12/30 07:02:06;;;;;;;51.80;24.08;;;1.10;99.90;;;;;;5043507;28;20045;-79
2023/12/30 07:04:37;;;;;;;59.03;26.05;;;0.70;99.90;;;;;;5067891;28;20060;-79
2023/12/30 07:07:07;;;;;;;58.17;24.77;;;1.00;99.90;;;;;;5050719;28;20060;-79
2023/12/30 07:09:44;;;;;;;50.22;23.23;;;1.20;99.90;;;;;;5069735;28;20048;-79
2023/12/30 07:12:16;;;;;;;61.67;26.38;;;1.00;99.90;;;;;;4999883;28;20049;-80
2023/12/30 07:14:45;;;;;;;56.33;26.45;;;1.00;99.90;;;;;;5036077;28;20055;-79
2023/12/30 07:17:17;;;;;;;62.35;26.77;;;0.20;99.90;;;;;;5046635;28;20044;-80
2023/12/30 07:19:46;;;;;;;94.13;35.17;;;1.10;99.90;;;;;;5044888;28;20075;-79
2023/12/30 07:22:19;;;;;;;91.05;35.20;;;1.60;99.90;;;;;;5045530;28;20041;-79
2023/12/30 07:24:52;;;;;;;74.10;31.48;;;2.20;99.90;;;;;;5029676;28;20079;-79
2023/12/30 07:27:22;;;;;;;77.38;33.25;;;1.10;99.90;;;;;;5029620;28;20079;-79
2023/12/30 07:29:51;;;;;;;91.20;36.47;;;1.20;99.90;;;;;;5040254;28;20045;-79
2023/12/30 07:32:29;;;;;;;80.28;31.98;;;1.40;99.90;;;;;;5026349;28;20061;-79
2023/12/30 07:35:00;;;;;;;82.13;32.42;;;1.10;99.90;;;;;;5036468;28;20054;-79
2023/12/30 07:37:33;;;;;;;77.97;32.95;;;1.20;99.90;;;;;;5021384;28;20045;-79
2023/12/30 07:40:07;;;;;;;72.30;29.98;;;0.80;99.90;;;;;;5021871;28;20579;-79
2023/12/30 07:42:38;;;;;;;123.15;52.00;;;1.20;99.90;;;;;;5027923;28;20046;-79
2023/12/30 07:45:48;;;;;;;128.00;52.60;;;1.00;99.90;;;;;;5027366;28;20132;-79
2023/12/30 07:48:18;;;;;;;113.68;46.80;;;1.20;99.90;;;;;;5021793;28;20054;-79
2023/12/30 07:50:51;;;;;;;119.25;44.35;;;1.20;99.90;;;;;;5025875;28;20061;-80
2023/12/30 07:53:29;;;;;;;114.88;42.00;;;1.20;99.90;;;;;;5019872;28;20041;-80
2023/12/30 07:56:03;;;;;;;122.32;49.97;;;1.30;99.90;;;;;;4992175;28;20054;-79
2023/12/30 07:58:43;;;;;;;110.18;42.95;;;1.30;99.90;;;;;;4983136;28;20047;-79
2023/12/30 08:01:14;;;;;;;123.63;44.35;;;1.60;99.90;;;;;;4967463;28;20070;-80
2023/12/30 08:03:49;;;;;;;102.78;39.60;;;1.40;99.90;;;;;;4952395;29;20474;-79
2023/12/30 08:06:19;;;;;;;101.93;41.53;;;1.30;99.90;;;;;;4949392;29;20047;-79
2023/12/30 08:09:09;;;;;;;112.10;41.22;;;1.30;99.90;;;;;;4963254;29;20079;-79
2023/12/30 08:11:42;;;;;;;107.72;43.15;;;1.40;99.90;;;;;;4947202;29;20071;-79
2023/12/30 08:14:26;;;;;;;117.85;48.00;;;1.50;99.90;;;;;;4946466;29;20051;-78
2023/12/30 08:16:58;;;;;;;120.63;48.38;;;1.50;99.90;;;;;;4944704;29;20051;-78
2023/12/30 08:19:27;;;;;;;133.32;48.80;;;1.60;99.90;;;;;;4946779;29;20086;-78
2023/12/30 08:21:57;;;;;;;140.75;49.80;;;1.60;99.90;;;;;;4944482;29;20054;-78
2023/12/30 08:24:28;;;;;;;115.78;46.80;;;1.70;99.90;;;;;;4959678;28;20051;-79
2023/12/30 08:27:00;;;;;;;129.47;49.30;;;1.70;99.90;;;;;;5001477;28;20136;-79
2023/12/30 08:29:30;;;;;;;135.05;51.40;;;1.80;99.90;;;;;;5028691;28;20505;-79
2023/12/30 08:32:06;;;;;;;129.50;49.80;;;2.20;99.90;;;;;;5041417;28;20045;-79
2023/12/30 08:34:39;;;;;;;127.00;48.92;;;1.90;99.90;;;;;;5026193;28;20050;-79
2023/12/30 08:37:14;;;;;;;124.05;48.63;;;1.90;99.90;;;;;;5045359;28;20076;-79
2023/12/30 08:39:52;;;;;;;108.57;44.88;;;2.10;99.90;;;;;;5049175;28;20049;-80
2023/12/30 08:42:34;;;;;;;114.18;45.50;;;1.90;99.90;;;;;;5005286;28;20053;-79
2023/12/30 08:45:07;;;;;;;111.78;46.97;;;2.10;99.90;;;;;;5006731;28;20042;-78
2023/12/30 08:47:37;;;;;;;120.30;45.50;;;2.00;99.90;;;;;;5004194;28;20050;-78
2023/12/30 08:50:10;;;;;;;91.90;39.08;;;2.00;99.90;;;;;;5022586;28;20121;-79
2023/12/30 08:52:46;;;;;;;78.10;35.45;;;2.00;99.90;;;;;;5024178;28;20540;-78
2023/12/30 08:55:22;;;;;;;74.47;34.58;;;2.30;99.90;;;;;;5025033;28;20060;-79
2023/12/30 08:57:57;;;;;;;84.28;39.15;;;2.10;99.90;;;;;;5008191;28;20041;-78
2023/12/30 09:00:28;;;;;;;88.00;36.67;;;2.20;99.90;;;;;;5034732;28;20072;-79
2023/12/30 09:03:20;;;;;;;83.93;36.75;;;2.30;99.90;;;;;;5015646;28;20052;-78
2023/12/30 09:06:05;;;;;;;82.68;35.67;;;2.40;99.90;;;;;;4966743;28;20058;-78
2023/12/30 09:08:36;;;;;;;73.32;31.13;;;2.40;99.90;;;;;;4965752;28;20043;-78
2023/12/30 09:11:07;;;;;;;67.15;31.48;;;2.50;99.90;;;;;;4984339;28;20059;-78
2023/12/30 09:13:39;;;;;;;72.63;31.60;;;2.60;99.90;;;;;;4926595;29;20148;-78
2023/12/30 09:16:10;;;;;;;75.55;35.65;;;2.80;99.90;;;;;;4919637;29;20090;-78
2023/12/30 09:18:42;;;;;;;69.63;33.03;;;2.70;99.90;;;;;;4924694;29;20070;-78
2023/12/30 09:21:12;;;;;;;84.00;38.05;;;2.70;99.90;;;;;;4918424;29;20045;-78
2023/12/30 09:23:44;;;;;;;74.25;35.00;;;2.80;99.90;;;;;;4905079;29;20427;-78
2023/12/30 09:26:16;;;;;;;95.00;42.15;;;2.90;99.90;;;;;;4905531;29;20072;-78
2023/12/30 09:28:49;;;;;;;129.77;51.65;;;2.90;99.90;;;;;;4918045;29;20547;-78
2023/12/30 09:31:22;;;;;;;110.88;50.58;;;2.90;99.90;;;;;;4914573;29;20074;-78
2023/12/30 09:33:51;;;;;;;84.78;41.90;;;2.80;99.90;;;;;;4923993;29;20044;-78
2023/12/30 09:36:20;;;;;;;103.00;46.88;;;2.80;99.90;;;;;;4921923;28;20052;-78
2023/12/30 09:38:49;;;;;;;83.82;40.17;;;2.00;99.90;;;;;;4941734;28;20300;-78
2023/12/30 09:41:21;;;;;;;87.60;43.38;;;2.80;99.90;;;;;;4949004;28;20042;-78
2023/12/30 09:43:52;;;;;;;78.50;38.47;;;2.80;99.90;;;;;;4992680;28;20050;-78
2023/12/30 09:46:23;;;;;;;78.82;39.08;;;2.90;99.90;;;;;;5037743;28;20045;-78
2023/12/30 09:48:53;;;;;;;77.53;36.53;;;2.90;99.90;;;;;;4985767;28;20061;-78
2023/12/30 09:51:23;;;;;;;80.13;37.83;;;2.90;99.90;;;;;;5045505;28;20060;-77
2023/12/30 09:53:51;;;;;;;70.65;35.70;;;2.90;99.90;;;;;;5030207;28;20053;-78
2023/12/30 09:56:20;;;;;;;75.20;35.78;;;3.00;99.90;;;;;;5015616;28;20067;-78
2023/12/30 09:58:51;;;;;;;97.60;42.25;;;3.00;99.90;;;;;;5022339;28;20048;-79
2023/12/30 10:01:20;;;;;;;78.72;38.47;;;3.10;99.90;;;;;;5055760;28;20055;-78
2023/12/30 10:03:48;;;;;;;133.38;60.25;;;3.20;99.90;;;;;;5031869;28;20055;-79
2023/12/30 10:06:22;;;;;;;426.88;161.68;;;3.20;99.90;;;;;;5026503;28;20052;-78
2023/12/30 10:08:50;;;;;;;130.82;59.45;;;3.20;99.90;;;;;;5028205;28;20500;-78
2023/12/30 10:11:19;;;;;;;115.60;56.03;;;3.30;99.90;;;;;;5012025;28;20641;-79
2023/12/30 10:13:47;;;;;;;148.60;68.20;;;3.30;99.90;;;;;;5026344;28;20511;-79
2023/12/30 10:16:17;;;;;;;125.53;58.20;;;3.30;99.90;;;;;;5009864;28;22668;-79
2023/12/30 10:18:46;;;;;;;142.77;65.07;;;3.30;99.90;;;;;;5010994;28;20515;-78
2023/12/30 10:21:18;;;;;;;130.75;57.63;;;3.40;99.90;;;;;;5029198;28;20427;-78
2023/12/30 10:23:51;;;;;;;132.70;61.47;;;3.50;99.90;;;;;;5027504;28;20693;-79
2023/12/30 10:26:20;;;;;;;138.57;65.63;;;3.60;99.90;;;;;;5025964;28;20053;-79
2023/12/30 10:28:49;;;;;;;128.95;61.20;;;3.80;99.90;;;;;;5008914;28;20500;-79
2023/12/30 10:31:18;;;;;;;137.20;59.75;;;3.80;99.90;;;;;;5007405;28;20124;-78
2023/12/30 10:33:49;;;;;;;131.48;58.70;;;4.00;99.90;;;;;;5007112;28;22598;-79
2023/12/30 10:36:19;;;;;;;149.95;63.53;;;4.10;99.90;;;;;;5005362;28;20053;-79
2023/12/30 10:38:47;;;;;;;134.07;62.08;;;4.20;99.90;;;;;;5022342;28;20045;-79
2023/12/30 10:41:16;;;;;;;133.77;59.92;;;4.20;99.90;;;;;;5025517;28;20056;-81
2023/12/30 10:43:45;;;;;;;144.73;66.70;;;4.30;99.90;;;;;;5007106;28;20052;-79
2023/12/30 10:46:14;;;;;;;100.28;47.05;;;4.40;99.90;;;;;;5025023;28;20661;-80
2023/12/30 10:48:52;;;;;;;86.07;38.95;;;4.60;99.90;;;;;;5024436;28;20187;-83
2023/12/30 10:51:26;;;;;;;70.80;35.88;;;4.70;99.90;;;;;;5007323;28;20226;-80
2023/12/30 10:54:02;;;;;;;72.35;35.70;;;4.80;99.90;;;;;;5013214;28;20052;-80
2023/12/30 10:56:31;;;;;;;72.43;34.35;;;4.90;99.90;;;;;;5035276;28;20393;-83
2023/12/30 10:59:03;;;;;;;74.40;34.05;;;5.00;99.90;;;;;;5009064;28;20178;-82
2023/12/30 11:01:33;;;;;;;73.13;35.90;;;5.10;99.90;;;;;;5011358;28;20189;-80
2023/12/30 11:04:11;;;;;;;73.00;37.05;;;5.30;99.90;;;;;;5017085;28;20422;-81
2023/12/30 11:06:46;;;;;;;70.05;35.55;;;5.40;99.90;;;;;;5030316;28;20060;-82
2023/12/30 11:09:15;;;;;;;74.93;36.22;;;5.50;99.90;;;;;;5039098;28;20049;-81
2023/12/30 11:11:50;;;;;;;73.53;34.47;;;5.60;99.90;;;;;;5015399;28;20051;-81
2023/12/30 11:14:18;;;;;;;73.13;34.00;;;5.60;99.90;;;;;;5011335;28;20103;-79
2023/12/30 11:16:50;;;;;;;72.13;35.75;;;5.70;99.90;;;;;;5032848;28;22621;-83
2023/12/30 11:19:30;;;;;;;69.07;35.90;;;5.80;99.90;;;;;;5022196;28;20063;-85
2023/12/30 11:22:00;;;;;;;76.78;37.45;;;5.90;99.90;;;;;;5026485;28;20080;-81
2023/12/30 11:24:29;;;;;;;86.20;42.42;;;6.10;99.90;;;;;;5027360;28;20051;-79
2023/12/30 11:26:58;;;;;;;68.68;36.53;;;6.20;99.90;;;;;;5030777;28;20052;-80
2023/12/30 11:29:28;;;;;;;79.07;38.58;;;6.20;99.90;;;;;;5025814;28;22489;-83
2023/12/30 11:31:59;;;;;;;74.15;37.75;;;6.30;99.90;;;;;;5024196;28;20526;-79
2023/12/30 11:34:29;;;;;;;81.65;38.38;;;6.40;99.90;;;;;;5039845;28;20052;-80
2023/12/30 11:36:59;;;;;;;85.10;41.85;;;6.40;99.90;;;;;;5028271;28;20090;-79
2023/12/30 11:39:30;;;;;;;83.35;40.00;;;6.40;99.90;;;;;;5020530;28;20052;-80
2023/12/30 11:41:59;;;;;;;74.45;34.08;;;6.50;99.90;;;;;;5006940;28;20049;-82
2023/12/30 11:44:28;;;;;;;67.95;35.67;;;6.40;99.90;;;;;;5003299;28;20079;-81
2023/12/30 11:46:57;;;;;;;73.80;35.60;;;6.50;99.90;;;;;;5010257;28;20069;-82
2023/12/30 11:49:28;;;;;;;73.63;33.58;;;6.40;99.90;;;;;;5024658;28;20126;-80
2023/12/30 11:52:04;;;;;;;64.88;32.33;;;6.40;99.90;;;;;;5026471;28;20325;-81
2023/12/30 11:54:35;;;;;;;70.32;33.70;;;6.50;99.90;;;;;;5023683;28;20049;-80
2023/12/30 11:57:06;;;;;;;66.88;32.22;;;6.50;99.90;;;;;;5022571;28;20044;-82
2023/12/30 11:59:35;;;;;;;60.97;31.52;;;6.50;99.90;;;;;;5020512;28;20521;-82
2023/12/30 12:02:08;;;;;;;64.57;31.13;;;6.50;99.90;;;;;;5005640;28;22729;-79
2023/12/30 12:04:37;;;;;;;57.13;30.52;;;6.60;99.90;;;;;;5005658;28;20056;-81
2023/12/30 12:07:08;;;;;;;59.08;29.33;;;6.60;99.90;;;;;;5007298;28;20060;-80
2023/12/30 12:09:37;;;;;;;52.00;28.83;;;6.60;99.90;;;;;;5034981;28;20049;-80
2023/12/30 12:12:07;;;;;;;61.30;31.27;;;6.60;99.90;;;;;;5036751;28;20296;-81
2023/12/30 12:14:36;;;;;;;66.93;33.25;;;6.60;99.90;;;;;;5015775;28;22582;-83
2023/12/30 12:17:06;;;;;;;64.45;32.97;;;6.50;99.90;;;;;;5008043;28;20054;-83
2023/12/30 12:19:37;;;;;;;62.15;31.85;;;6.70;99.90;;;;;;5023599;28;20044;-82
2023/12/30 12:22:07;;;;;;;66.63;32.40;;;6.70;99.90;;;;;;5022624;28;20529;-80
2023/12/30 12:24:36;;;;;;;58.63;29.77;;;6.70;99.90;;;;;;5023110;28;20782;-80
2023/12/30 12:27:05;;;;;;;61.40;31.50;;;6.70;99.90;;;;;;5006506;28;20436;-78
2023/12/30 12:29:33;;;;;;;59.85;28.88;;;6.80;99.90;;;;;;5012887;28;20125;-79
2023/12/30 12:32:06;;;;;;;65.15;31.23;;;6.80;99.90;;;;;;5009977;28;20044;-79
2023/12/30 12:34:35;;;;;;;57.90;28.27;;;6.80;99.90;;;;;;5019919;28;20053;-80
2023/12/30 12:37:04;;;;;;;56.53;26.77;;;6.80;99.90;;;;;;5018383;28;20819;-82
2023/12/30 12:39:34;;;;;;;47.92;25.58;;;6.90;99.90;;;;;;5022779;28;22761;-80
2023/12/30 12:42:03;;;;;;;51.05;25.90;;;6.90;99.90;;;;;;5013201;28;20057;-80
2023/12/30 12:44:50;;;;;;;52.55;25.55;;;6.80;99.90;;;;;;5006940;28;20562;-79
2023/12/30 12:47:18;;;;;;;57.53;28.23;;;6.80;99.90;;;;;;5013899;28;20426;-80
2023/12/30 12:49:47;;;;;;;52.08;25.33;;;6.90;99.90;;;;;;5027234;28;20049;-81
2023/12/30 12:52:15;;;;;;;51.60;26.15;;;6.80;99.90;;;;;;5019220;28;20545;-79